sensor_id;sensor_type;location;lat;lon;timestamp;P1;durP1;ratioP1;P2;durP2;ratioP2
28078;SDS011;15388;42.238;24.684;2024-03-08T00:04:08;66.25;;;31.77;;
28078;SDS011;15388;42.238;24.684;2024-03-08T00:06:34;50.33;;;28.58;;
28078;SDS011;15388;42.238;24.684;2024-03-08T00:12:02;44.83;;;27.10;;
28078;SDS011;15388;42.238;24.684;2024-03-08T00:14:28;43.60;;;25.95;;
28078;SDS011;15388;42.238;24.684;2024-03-08T00:16:53;45.25;;;25.85;;
28078;SDS011;15388;42.238;24.684;2024-03-08T00:19:19;54.28;;;27.95;;
28078;SDS011;15388;42.238;24.684;2024-03-08T00:21:44;52.13;;;28.15;;
28078;SDS011;15388;42.238;24.684;2024-03-08T00:24:10;50.40;;;26.67;;
28078;SDS011;15388;42.238;24.684;2024-03-08T00:26:37;47.35;;;26.58;;
28078;SDS011;15388;42.238;24.684;2024-03-08T00:29:02;56.85;;;29.63;;
28078;SDS011;15388;42.238;24.684;2024-03-08T00:31:28;48.83;;;27.80;;
28078;SDS011;15388;42.238;24.684;2024-03-08T00:33:56;46.92;;;26.92;;
28078;SDS011;15388;42.238;24.684;2024-03-08T00:36:22;42.42;;;28.58;;
28078;SDS011;15388;42.238;24.684;2024-03-08T00:38:47;56.10;;;31.90;;
28078;SDS011;15388;42.238;24.684;2024-03-08T00:41:12;41.63;;;26.58;;
28078;SDS011;15388;42.238;24.684;2024-03-08T00:43:38;45.08;;;26.83;;
28078;SDS011;15388;42.238;24.684;2024-03-08T00:46:03;65.43;;;31.65;;
28078;SDS011;15388;42.238;24.684;2024-03-08T00:48:28;58.00;;;29.48;;
28078;SDS011;15388;42.238;24.684;2024-03-08T00:53:57;44.55;;;27.48;;
28078;SDS011;15388;42.238;24.684;2024-03-08T00:56:22;46.85;;;26.42;;
28078;SDS011;15388;42.238;24.684;2024-03-08T00:58:49;45.25;;;26.95;;
28078;SDS011;15388;42.238;24.684;2024-03-08T01:01:15;47.60;;;29.83;;
28078;SDS011;15388;42.238;24.684;2024-03-08T01:06:46;47.95;;;26.48;;
28078;SDS011;15388;42.238;24.684;2024-03-08T01:09:13;55.22;;;27.38;;
28078;SDS011;15388;42.238;24.684;2024-03-08T01:11:38;44.00;;;27.00;;
28078;SDS011;15388;42.238;24.684;2024-03-08T01:14:04;44.65;;;26.95;;
28078;SDS011;15388;42.238;24.684;2024-03-08T01:19:14;44.78;;;26.13;;
28078;SDS011;15388;42.238;24.684;2024-03-08T01:21:40;50.22;;;27.42;;
28078;SDS011;15388;42.238;24.684;2024-03-08T01:24:06;54.08;;;27.92;;
28078;SDS011;15388;42.238;24.684;2024-03-08T01:26:31;40.88;;;26.92;;
28078;SDS011;15388;42.238;24.684;2024-03-08T01:31:24;44.07;;;26.70;;
28078;SDS011;15388;42.238;24.684;2024-03-08T01:33:49;53.10;;;25.95;;
28078;SDS011;15388;42.238;24.684;2024-03-08T01:36:15;43.70;;;26.60;;
28078;SDS011;15388;42.238;24.684;2024-03-08T01:38:42;50.85;;;26.77;;
28078;SDS011;15388;42.238;24.684;2024-03-08T01:41:07;53.42;;;28.00;;
28078;SDS011;15388;42.238;24.684;2024-03-08T01:44:05;44.58;;;27.25;;
28078;SDS011;15388;42.238;24.684;2024-03-08T01:49:22;48.40;;;26.88;;
28078;SDS011;15388;42.238;24.684;2024-03-08T01:51:50;45.83;;;28.52;;
28078;SDS011;15388;42.238;24.684;2024-03-08T01:57:06;41.65;;;25.52;;
28078;SDS011;15388;42.238;24.684;2024-03-08T01:59:31;47.45;;;27.98;;
28078;SDS011;15388;42.238;24.684;2024-03-08T02:04:48;55.95;;;34.60;;
28078;SDS011;15388;42.238;24.684;2024-03-08T02:07:13;58.80;;;35.70;;
28078;SDS011;15388;42.238;24.684;2024-03-08T02:12:42;48.00;;;28.02;;
28078;SDS011;15388;42.238;24.684;2024-03-08T02:15:07;48.85;;;27.08;;
28078;SDS011;15388;42.238;24.684;2024-03-08T02:17:33;44.55;;;25.52;;
28078;SDS011;15388;42.238;24.684;2024-03-08T02:20:02;41.40;;;27.70;;
28078;SDS011;15388;42.238;24.684;2024-03-08T02:22:28;43.83;;;25.98;;
28078;SDS011;15388;42.238;24.684;2024-03-08T02:27:58;76.00;;;40.22;;
28078;SDS011;15388;42.238;24.684;2024-03-08T02:30:23;69.32;;;41.17;;
28078;SDS011;15388;42.238;24.684;2024-03-08T02:35:51;45.58;;;28.10;;
28078;SDS011;15388;42.238;24.684;2024-03-08T02:38:17;45.03;;;28.55;;
28078;SDS011;15388;42.238;24.684;2024-03-08T02:43:46;56.00;;;33.40;;
28078;SDS011;15388;42.238;24.684;2024-03-08T02:46:12;48.75;;;29.05;;
28078;SDS011;15388;42.238;24.684;2024-03-08T02:48:37;46.85;;;28.23;;
28078;SDS011;15388;42.238;24.684;2024-03-08T02:51:03;57.53;;;35.90;;
28078;SDS011;15388;42.238;24.684;2024-03-08T02:56:31;45.70;;;28.25;;
28078;SDS011;15388;42.238;24.684;2024-03-08T02:59:00;45.60;;;28.30;;
28078;SDS011;15388;42.238;24.684;2024-03-08T03:04:30;54.42;;;30.77;;
28078;SDS011;15388;42.238;24.684;2024-03-08T03:06:56;56.25;;;29.60;;
28078;SDS011;15388;42.238;24.684;2024-03-08T03:09:21;48.05;;;28.90;;
28078;SDS011;15388;42.238;24.684;2024-03-08T03:11:52;48.63;;;27.67;;
28078;SDS011;15388;42.238;24.684;2024-03-08T03:14:17;43.45;;;28.30;;
28078;SDS011;15388;42.238;24.684;2024-03-08T03:16:44;41.92;;;27.80;;
28078;SDS011;15388;42.238;24.684;2024-03-08T03:19:11;46.60;;;26.63;;
28078;SDS011;15388;42.238;24.684;2024-03-08T03:21:36;53.53;;;29.73;;
28078;SDS011;15388;42.238;24.684;2024-03-08T03:24:03;44.63;;;27.02;;
28078;SDS011;15388;42.238;24.684;2024-03-08T03:29:33;52.80;;;32.05;;
28078;SDS011;15388;42.238;24.684;2024-03-08T03:31:59;51.25;;;31.15;;
28078;SDS011;15388;42.238;24.684;2024-03-08T03:37:28;42.42;;;28.05;;
28078;SDS011;15388;42.238;24.684;2024-03-08T03:39:53;49.42;;;29.70;;
28078;SDS011;15388;42.238;24.684;2024-03-08T03:54:30;48.50;;;29.00;;
28078;SDS011;15388;42.238;24.684;2024-03-08T03:56:56;45.85;;;26.25;;
28078;SDS011;15388;42.238;24.684;2024-03-08T04:02:09;52.63;;;30.17;;
28078;SDS011;15388;42.238;24.684;2024-03-08T04:04:36;50.30;;;28.10;;
28078;SDS011;15388;42.238;24.684;2024-03-08T04:07:01;52.70;;;30.52;;
28078;SDS011;15388;42.238;24.684;2024-03-08T04:09:27;46.13;;;28.08;;
28078;SDS011;15388;42.238;24.684;2024-03-08T04:11:52;57.28;;;34.22;;
28078;SDS011;15388;42.238;24.684;2024-03-08T04:14:20;65.00;;;40.72;;
28078;SDS011;15388;42.238;24.684;2024-03-08T04:19:55;49.28;;;30.35;;
28078;SDS011;15388;42.238;24.684;2024-03-08T04:22:20;53.08;;;30.67;;
28078;SDS011;15388;42.238;24.684;2024-03-08T04:27:49;55.85;;;32.53;;
28078;SDS011;15388;42.238;24.684;2024-03-08T04:30:14;45.58;;;28.83;;
28078;SDS011;15388;42.238;24.684;2024-03-08T04:32:40;54.45;;;32.17;;
28078;SDS011;15388;42.238;24.684;2024-03-08T04:35:06;51.60;;;29.17;;
28078;SDS011;15388;42.238;24.684;2024-03-08T04:37:31;49.22;;;29.65;;
28078;SDS011;15388;42.238;24.684;2024-03-08T04:39:57;51.63;;;31.20;;
28078;SDS011;15388;42.238;24.684;2024-03-08T04:42:23;60.78;;;30.75;;
28078;SDS011;15388;42.238;24.684;2024-03-08T04:44:54;55.03;;;31.05;;
28078;SDS011;15388;42.238;24.684;2024-03-08T04:47:20;54.00;;;31.13;;
28078;SDS011;15388;42.238;24.684;2024-03-08T04:49:45;65.53;;;39.50;;
28078;SDS011;15388;42.238;24.684;2024-03-08T04:52:11;58.50;;;33.92;;
28078;SDS011;15388;42.238;24.684;2024-03-08T04:54:37;56.75;;;34.80;;
28078;SDS011;15388;42.238;24.684;2024-03-08T05:00:05;54.47;;;30.63;;
28078;SDS011;15388;42.238;24.684;2024-03-08T05:02:36;58.70;;;32.30;;
28078;SDS011;15388;42.238;24.684;2024-03-08T05:07:58;53.75;;;28.75;;
28078;SDS011;15388;42.238;24.684;2024-03-08T05:10:23;50.88;;;30.45;;
28078;SDS011;15388;42.238;24.684;2024-03-08T05:12:48;55.00;;;32.38;;
28078;SDS011;15388;42.238;24.684;2024-03-08T05:15:14;54.08;;;31.27;;
28078;SDS011;15388;42.238;24.684;2024-03-08T05:20:42;53.33;;;30.75;;
28078;SDS011;15388;42.238;24.684;2024-03-08T05:23:08;57.45;;;31.90;;
28078;SDS011;15388;42.238;24.684;2024-03-08T05:25:34;56.67;;;33.80;;
28078;SDS011;15388;42.238;24.684;2024-03-08T05:27:59;63.47;;;32.20;;
28078;SDS011;15388;42.238;24.684;2024-03-08T05:33:40;60.13;;;33.30;;
28078;SDS011;15388;42.238;24.684;2024-03-08T05:36:08;61.75;;;33.55;;
28078;SDS011;15388;42.238;24.684;2024-03-08T05:38:34;65.72;;;40.75;;
28078;SDS011;15388;42.238;24.684;2024-03-08T05:40:59;56.83;;;33.63;;
28078;SDS011;15388;42.238;24.684;2024-03-08T05:46:18;53.83;;;31.05;;
28078;SDS011;15388;42.238;24.684;2024-03-08T05:48:44;56.90;;;33.53;;
28078;SDS011;15388;42.238;24.684;2024-03-08T05:54:12;58.08;;;30.77;;
28078;SDS011;15388;42.238;24.684;2024-03-08T05:56:38;55.78;;;34.42;;
28078;SDS011;15388;42.238;24.684;2024-03-08T05:59:07;61.38;;;33.15;;
28078;SDS011;15388;42.238;24.684;2024-03-08T06:01:32;53.10;;;31.58;;
28078;SDS011;15388;42.238;24.684;2024-03-08T06:07:05;55.80;;;32.45;;
28078;SDS011;15388;42.238;24.684;2024-03-08T06:09:30;55.30;;;31.23;;
28078;SDS011;15388;42.238;24.684;2024-03-08T06:11:56;173.40;;;91.75;;
28078;SDS011;15388;42.238;24.684;2024-03-08T06:14:22;79.30;;;44.27;;
28078;SDS011;15388;42.238;24.684;2024-03-08T06:16:48;69.70;;;42.47;;
28078;SDS011;15388;42.238;24.684;2024-03-08T06:19:15;52.55;;;33.47;;
28078;SDS011;15388;42.238;24.684;2024-03-08T06:21:40;57.30;;;34.53;;
28078;SDS011;15388;42.238;24.684;2024-03-08T06:24:06;58.22;;;33.33;;
28078;SDS011;15388;42.238;24.684;2024-03-08T06:26:32;52.92;;;32.47;;
28078;SDS011;15388;42.238;24.684;2024-03-08T06:32:00;55.70;;;29.17;;
28078;SDS011;15388;42.238;24.684;2024-03-08T06:34:25;57.13;;;31.02;;
28078;SDS011;15388;42.238;24.684;2024-03-08T06:36:51;53.45;;;30.55;;
28078;SDS011;15388;42.238;24.684;2024-03-08T06:39:20;56.60;;;31.95;;
28078;SDS011;15388;42.238;24.684;2024-03-08T06:41:50;59.17;;;32.08;;
28078;SDS011;15388;42.238;24.684;2024-03-08T06:44:16;60.22;;;30.73;;
28078;SDS011;15388;42.238;24.684;2024-03-08T06:49:31;64.45;;;32.55;;
28078;SDS011;15388;42.238;24.684;2024-03-08T06:51:58;89.22;;;42.13;;
28078;SDS011;15388;42.238;24.684;2024-03-08T06:54:23;141.93;;;65.97;;
28078;SDS011;15388;42.238;24.684;2024-03-08T06:56:49;61.28;;;35.85;;
28078;SDS011;15388;42.238;24.684;2024-03-08T06:59:15;63.13;;;37.40;;
28078;SDS011;15388;42.238;24.684;2024-03-08T07:04:08;56.70;;;29.87;;
28078;SDS011;15388;42.238;24.684;2024-03-08T07:06:33;60.42;;;31.30;;
28078;SDS011;15388;42.238;24.684;2024-03-08T07:08:59;54.47;;;30.95;;
28078;SDS011;15388;42.238;24.684;2024-03-08T07:11:24;59.38;;;32.92;;
28078;SDS011;15388;42.238;24.684;2024-03-08T07:13:50;64.57;;;33.13;;
28078;SDS011;15388;42.238;24.684;2024-03-08T07:16:15;66.68;;;32.63;;
28078;SDS011;15388;42.238;24.684;2024-03-08T07:18:41;63.83;;;33.15;;
28078;SDS011;15388;42.238;24.684;2024-03-08T07:21:09;59.83;;;31.58;;
28078;SDS011;15388;42.238;24.684;2024-03-08T07:23:35;60.80;;;31.85;;
28078;SDS011;15388;42.238;24.684;2024-03-08T07:26:27;62.00;;;32.75;;
28078;SDS011;15388;42.238;24.684;2024-03-08T07:28:53;55.67;;;33.17;;
28078;SDS011;15388;42.238;24.684;2024-03-08T07:31:22;56.70;;;30.20;;
28078;SDS011;15388;42.238;24.684;2024-03-08T07:37:05;62.55;;;36.78;;
28078;SDS011;15388;42.238;24.684;2024-03-08T07:39:31;68.93;;;33.53;;
28078;SDS011;15388;42.238;24.684;2024-03-08T07:41:57;57.17;;;32.55;;
28078;SDS011;15388;42.238;24.684;2024-03-08T07:44:22;65.07;;;31.73;;
28078;SDS011;15388;42.238;24.684;2024-03-08T07:49:50;54.70;;;30.63;;
28078;SDS011;15388;42.238;24.684;2024-03-08T07:52:16;59.28;;;31.70;;
28078;SDS011;15388;42.238;24.684;2024-03-08T07:54:43;55.20;;;32.60;;
28078;SDS011;15388;42.238;24.684;2024-03-08T07:57:08;57.50;;;32.17;;
28078;SDS011;15388;42.238;24.684;2024-03-08T07:59:35;55.75;;;29.13;;
28078;SDS011;15388;42.238;24.684;2024-03-08T08:02:03;60.50;;;31.42;;
28078;SDS011;15388;42.238;24.684;2024-03-08T08:04:29;62.70;;;32.35;;
28078;SDS011;15388;42.238;24.684;2024-03-08T08:06:54;50.30;;;30.05;;
28078;SDS011;15388;42.238;24.684;2024-03-08T08:12:16;47.65;;;28.75;;
28078;SDS011;15388;42.238;24.684;2024-03-08T08:14:42;68.68;;;39.05;;
28078;SDS011;15388;42.238;24.684;2024-03-08T08:17:07;161.25;;;74.60;;
28078;SDS011;15388;42.238;24.684;2024-03-08T08:19:34;59.40;;;33.78;;
28078;SDS011;15388;42.238;24.684;2024-03-08T08:24:50;59.58;;;31.60;;
28078;SDS011;15388;42.238;24.684;2024-03-08T08:27:17;54.83;;;31.13;;
28078;SDS011;15388;42.238;24.684;2024-03-08T08:29:42;56.47;;;30.33;;
28078;SDS011;15388;42.238;24.684;2024-03-08T08:32:08;51.97;;;30.05;;
28078;SDS011;15388;42.238;24.684;2024-03-08T08:37:40;52.17;;;31.30;;
28078;SDS011;15388;42.238;24.684;2024-03-08T08:40:05;57.03;;;32.97;;
28078;SDS011;15388;42.238;24.684;2024-03-08T08:42:49;59.85;;;33.05;;
28078;SDS011;15388;42.238;24.684;2024-03-08T08:45:15;56.47;;;30.00;;
28078;SDS011;15388;42.238;24.684;2024-03-08T08:47:50;56.50;;;32.00;;
28078;SDS011;15388;42.238;24.684;2024-03-08T08:59:12;52.00;;;27.98;;
28078;SDS011;15388;42.238;24.684;2024-03-08T09:01:39;55.92;;;32.00;;
28078;SDS011;15388;42.238;24.684;2024-03-08T09:10:09;55.17;;;29.85;;
28078;SDS011;15388;42.238;24.684;2024-03-08T09:12:39;59.00;;;31.83;;
28078;SDS011;15388;42.238;24.684;2024-03-08T09:15:05;65.25;;;28.63;;
28078;SDS011;15388;42.238;24.684;2024-03-08T09:17:38;56.22;;;29.95;;
28078;SDS011;15388;42.238;24.684;2024-03-08T09:20:07;50.58;;;29.20;;
28078;SDS011;15388;42.238;24.684;2024-03-08T09:22:33;57.08;;;27.27;;
28078;SDS011;15388;42.238;24.684;2024-03-08T09:24:59;52.55;;;26.05;;
28078;SDS011;15388;42.238;24.684;2024-03-08T09:27:24;49.67;;;25.23;;
28078;SDS011;15388;42.238;24.684;2024-03-08T09:29:49;44.10;;;25.50;;
28078;SDS011;15388;42.238;24.684;2024-03-08T09:32:20;46.47;;;26.85;;
28078;SDS011;15388;42.238;24.684;2024-03-08T09:34:47;47.17;;;26.23;;
28078;SDS011;15388;42.238;24.684;2024-03-08T09:37:13;85.55;;;42.75;;
28078;SDS011;15388;42.238;24.684;2024-03-08T09:39:38;46.05;;;27.52;;
28078;SDS011;15388;42.238;24.684;2024-03-08T09:42:04;43.70;;;27.67;;
28078;SDS011;15388;42.238;24.684;2024-03-08T09:44:30;49.40;;;25.63;;
28078;SDS011;15388;42.238;24.684;2024-03-08T09:46:56;46.80;;;26.52;;
28078;SDS011;15388;42.238;24.684;2024-03-08T09:49:23;39.38;;;23.90;;
28078;SDS011;15388;42.238;24.684;2024-03-08T09:51:48;50.78;;;28.75;;
28078;SDS011;15388;42.238;24.684;2024-03-08T09:54:16;47.55;;;28.60;;
28078;SDS011;15388;42.238;24.684;2024-03-08T09:56:42;52.75;;;27.52;;
28078;SDS011;15388;42.238;24.684;2024-03-08T09:59:09;63.63;;;34.22;;
28078;SDS011;15388;42.238;24.684;2024-03-08T10:04:04;45.47;;;26.10;;
28078;SDS011;15388;42.238;24.684;2024-03-08T10:06:29;43.35;;;26.70;;
28078;SDS011;15388;42.238;24.684;2024-03-08T10:08:55;42.70;;;24.08;;
28078;SDS011;15388;42.238;24.684;2024-03-08T10:11:20;44.80;;;25.67;;
28078;SDS011;15388;42.238;24.684;2024-03-08T10:13:47;44.67;;;24.25;;
28078;SDS011;15388;42.238;24.684;2024-03-08T10:16:13;46.20;;;25.17;;
28078;SDS011;15388;42.238;24.684;2024-03-08T10:18:38;65.70;;;30.58;;
28078;SDS011;15388;42.238;24.684;2024-03-08T10:21:04;54.30;;;25.35;;
28078;SDS011;15388;42.238;24.684;2024-03-08T10:23:30;51.57;;;24.97;;
28078;SDS011;15388;42.238;24.684;2024-03-08T10:25:56;45.10;;;24.77;;
28078;SDS011;15388;42.238;24.684;2024-03-08T10:28:23;51.60;;;28.15;;
28078;SDS011;15388;42.238;24.684;2024-03-08T10:30:50;53.22;;;28.58;;
28078;SDS011;15388;42.238;24.684;2024-03-08T10:33:15;48.95;;;28.98;;
28078;SDS011;15388;42.238;24.684;2024-03-08T10:35:40;41.40;;;24.27;;
28078;SDS011;15388;42.238;24.684;2024-03-08T10:38:06;41.70;;;23.20;;
28078;SDS011;15388;42.238;24.684;2024-03-08T10:40:36;44.55;;;23.80;;
28078;SDS011;15388;42.238;24.684;2024-03-08T10:43:04;42.65;;;25.52;;
28078;SDS011;15388;42.238;24.684;2024-03-08T10:45:38;46.03;;;25.80;;
28078;SDS011;15388;42.238;24.684;2024-03-08T10:50:53;41.33;;;22.77;;
28078;SDS011;15388;42.238;24.684;2024-03-08T10:53:18;44.22;;;25.55;;
28078;SDS011;15388;42.238;24.684;2024-03-08T10:55:46;31.38;;;21.35;;
28078;SDS011;15388;42.238;24.684;2024-03-08T10:58:12;47.42;;;28.98;;
28078;SDS011;15388;42.238;24.684;2024-03-08T11:00:37;32.55;;;21.92;;
28078;SDS011;15388;42.238;24.684;2024-03-08T11:03:03;37.75;;;21.92;;
28078;SDS011;15388;42.238;24.684;2024-03-08T11:08:01;48.70;;;24.25;;
28078;SDS011;15388;42.238;24.684;2024-03-08T11:10:26;32.85;;;21.35;;
28078;SDS011;15388;42.238;24.684;2024-03-08T11:12:51;30.17;;;18.27;;
28078;SDS011;15388;42.238;24.684;2024-03-08T11:15:17;33.80;;;19.58;;
28078;SDS011;15388;42.238;24.684;2024-03-08T11:17:48;23.85;;;16.40;;
28078;SDS011;15388;42.238;24.684;2024-03-08T11:20:17;25.92;;;15.48;;
28078;SDS011;15388;42.238;24.684;2024-03-08T11:22:48;32.20;;;16.17;;
28078;SDS011;15388;42.238;24.684;2024-03-08T11:28:07;24.52;;;18.58;;
28078;SDS011;15388;42.238;24.684;2024-03-08T11:30:33;29.80;;;17.30;;
28078;SDS011;15388;42.238;24.684;2024-03-08T11:33:00;37.67;;;22.02;;
28078;SDS011;15388;42.238;24.684;2024-03-08T11:35:26;32.95;;;19.70;;
28078;SDS011;15388;42.238;24.684;2024-03-08T11:37:52;36.45;;;21.10;;
28078;SDS011;15388;42.238;24.684;2024-03-08T11:40:17;44.72;;;28.25;;
28078;SDS011;15388;42.238;24.684;2024-03-08T11:42:47;37.55;;;21.27;;
28078;SDS011;15388;42.238;24.684;2024-03-08T11:45:13;36.17;;;20.23;;
28078;SDS011;15388;42.238;24.684;2024-03-08T11:47:41;34.88;;;19.23;;
28078;SDS011;15388;42.238;24.684;2024-03-08T11:50:07;28.70;;;18.60;;
28078;SDS011;15388;42.238;24.684;2024-03-08T11:52:36;31.38;;;20.80;;
28078;SDS011;15388;42.238;24.684;2024-03-08T11:55:01;37.90;;;22.73;;
28078;SDS011;15388;42.238;24.684;2024-03-08T11:57:28;30.95;;;20.83;;
28078;SDS011;15388;42.238;24.684;2024-03-08T11:59:53;32.78;;;22.58;;
28078;SDS011;15388;42.238;24.684;2024-03-08T12:02:19;35.58;;;22.15;;
28078;SDS011;15388;42.238;24.684;2024-03-08T12:04:45;33.00;;;21.58;;
28078;SDS011;15388;42.238;24.684;2024-03-08T12:07:11;29.92;;;19.80;;
28078;SDS011;15388;42.238;24.684;2024-03-08T12:09:43;40.83;;;21.88;;
28078;SDS011;15388;42.238;24.684;2024-03-08T12:12:12;28.38;;;18.85;;
28078;SDS011;15388;42.238;24.684;2024-03-08T12:14:37;31.58;;;20.05;;
28078;SDS011;15388;42.238;24.684;2024-03-08T12:17:03;35.00;;;19.90;;
28078;SDS011;15388;42.238;24.684;2024-03-08T12:19:29;84.28;;;44.15;;
28078;SDS011;15388;42.238;24.684;2024-03-08T12:21:55;36.55;;;23.67;;
28078;SDS011;15388;42.238;24.684;2024-03-08T12:24:20;35.25;;;21.65;;
28078;SDS011;15388;42.238;24.684;2024-03-08T12:26:46;35.08;;;20.38;;
28078;SDS011;15388;42.238;24.684;2024-03-08T12:29:19;31.58;;;19.17;;
28078;SDS011;15388;42.238;24.684;2024-03-08T12:31:49;28.13;;;18.58;;
28078;SDS011;15388;42.238;24.684;2024-03-08T12:34:15;31.88;;;20.90;;
28078;SDS011;15388;42.238;24.684;2024-03-08T12:36:47;34.70;;;20.50;;
28078;SDS011;15388;42.238;24.684;2024-03-08T12:39:15;39.13;;;21.83;;
28078;SDS011;15388;42.238;24.684;2024-03-08T12:41:41;37.90;;;21.20;;
28078;SDS011;15388;42.238;24.684;2024-03-08T12:44:06;27.17;;;17.75;;
28078;SDS011;15388;42.238;24.684;2024-03-08T12:46:36;33.75;;;20.40;;
28078;SDS011;15388;42.238;24.684;2024-03-08T12:49:05;29.52;;;18.63;;
28078;SDS011;15388;42.238;24.684;2024-03-08T12:51:31;23.80;;;16.27;;
28078;SDS011;15388;42.238;24.684;2024-03-08T12:53:58;28.05;;;17.83;;
28078;SDS011;15388;42.238;24.684;2024-03-08T12:56:30;29.05;;;16.42;;
28078;SDS011;15388;42.238;24.684;2024-03-08T12:58:57;20.65;;;15.02;;
28078;SDS011;15388;42.238;24.684;2024-03-08T13:01:23;30.63;;;20.75;;
28078;SDS011;15388;42.238;24.684;2024-03-08T13:03:48;24.98;;;16.00;;
28078;SDS011;15388;42.238;24.684;2024-03-08T13:06:14;45.07;;;22.37;;
28078;SDS011;15388;42.238;24.684;2024-03-08T13:08:40;31.80;;;18.33;;
28078;SDS011;15388;42.238;24.684;2024-03-08T13:11:06;22.60;;;14.90;;
28078;SDS011;15388;42.238;24.684;2024-03-08T13:13:39;28.15;;;17.58;;
28078;SDS011;15388;42.238;24.684;2024-03-08T13:16:05;26.33;;;17.08;;
28078;SDS011;15388;42.238;24.684;2024-03-08T13:18:33;22.65;;;15.45;;
28078;SDS011;15388;42.238;24.684;2024-03-08T13:20:58;20.33;;;14.27;;
28078;SDS011;15388;42.238;24.684;2024-03-08T13:23:24;22.05;;;15.32;;
28078;SDS011;15388;42.238;24.684;2024-03-08T13:25:49;18.88;;;13.43;;
28078;SDS011;15388;42.238;24.684;2024-03-08T13:28:15;20.75;;;13.70;;
28078;SDS011;15388;42.238;24.684;2024-03-08T13:30:42;22.77;;;14.77;;
28078;SDS011;15388;42.238;24.684;2024-03-08T13:33:09;22.67;;;14.55;;
28078;SDS011;15388;42.238;24.684;2024-03-08T13:35:34;38.63;;;19.20;;
28078;SDS011;15388;42.238;24.684;2024-03-08T13:38:00;34.08;;;16.58;;
28078;SDS011;15388;42.238;24.684;2024-03-08T13:40:28;29.35;;;17.27;;
28078;SDS011;15388;42.238;24.684;2024-03-08T13:42:53;22.95;;;15.93;;
28078;SDS011;15388;42.238;24.684;2024-03-08T13:45:18;24.60;;;14.93;;
28078;SDS011;15388;42.238;24.684;2024-03-08T13:47:47;22.55;;;14.73;;
28078;SDS011;15388;42.238;24.684;2024-03-08T13:50:14;21.63;;;13.85;;
28078;SDS011;15388;42.238;24.684;2024-03-08T13:52:46;21.63;;;14.05;;
28078;SDS011;15388;42.238;24.684;2024-03-08T13:55:11;19.80;;;14.40;;
28078;SDS011;15388;42.238;24.684;2024-03-08T13:57:38;26.30;;;16.90;;
28078;SDS011;15388;42.238;24.684;2024-03-08T14:00:03;22.08;;;14.68;;
28078;SDS011;15388;42.238;24.684;2024-03-08T14:02:28;28.48;;;16.80;;
28078;SDS011;15388;42.238;24.684;2024-03-08T14:04:55;25.67;;;15.75;;
28078;SDS011;15388;42.238;24.684;2024-03-08T14:07:21;31.38;;;18.05;;
28078;SDS011;15388;42.238;24.684;2024-03-08T14:09:48;26.58;;;14.90;;
28078;SDS011;15388;42.238;24.684;2024-03-08T14:12:14;20.27;;;14.63;;
28078;SDS011;15388;42.238;24.684;2024-03-08T14:14:40;22.23;;;13.57;;
28078;SDS011;15388;42.238;24.684;2024-03-08T14:17:05;18.92;;;12.43;;
28078;SDS011;15388;42.238;24.684;2024-03-08T14:19:32;19.02;;;13.75;;
28078;SDS011;15388;42.238;24.684;2024-03-08T14:21:57;16.88;;;13.13;;
28078;SDS011;15388;42.238;24.684;2024-03-08T14:24:24;34.58;;;19.45;;
28078;SDS011;15388;42.238;24.684;2024-03-08T14:26:49;34.35;;;17.50;;
28078;SDS011;15388;42.238;24.684;2024-03-08T14:29:15;31.58;;;24.88;;
28078;SDS011;15388;42.238;24.684;2024-03-08T14:31:40;29.38;;;17.45;;
28078;SDS011;15388;42.238;24.684;2024-03-08T14:34:06;31.30;;;16.92;;
28078;SDS011;15388;42.238;24.684;2024-03-08T14:36:32;30.08;;;16.48;;
28078;SDS011;15388;42.238;24.684;2024-03-08T14:38:57;23.13;;;13.85;;
28078;SDS011;15388;42.238;24.684;2024-03-08T14:41:23;20.45;;;13.60;;
28078;SDS011;15388;42.238;24.684;2024-03-08T14:43:48;23.83;;;15.00;;
28078;SDS011;15388;42.238;24.684;2024-03-08T14:46:14;25.25;;;15.63;;
28078;SDS011;15388;42.238;24.684;2024-03-08T14:48:45;23.30;;;16.45;;
28078;SDS011;15388;42.238;24.684;2024-03-08T14:51:11;29.33;;;18.58;;
28078;SDS011;15388;42.238;24.684;2024-03-08T14:53:39;34.85;;;21.05;;
28078;SDS011;15388;42.238;24.684;2024-03-08T14:56:06;61.20;;;24.67;;
28078;SDS011;15388;42.238;24.684;2024-03-08T14:58:32;40.07;;;22.37;;
28078;SDS011;15388;42.238;24.684;2024-03-08T15:00:58;44.58;;;23.08;;
28078;SDS011;15388;42.238;24.684;2024-03-08T15:03:25;45.22;;;22.17;;
28078;SDS011;15388;42.238;24.684;2024-03-08T15:05:51;39.58;;;21.48;;
28078;SDS011;15388;42.238;24.684;2024-03-08T15:08:19;34.90;;;21.30;;
28078;SDS011;15388;42.238;24.684;2024-03-08T15:10:46;28.10;;;18.40;;
28078;SDS011;15388;42.238;24.684;2024-03-08T15:13:12;28.10;;;19.05;;
28078;SDS011;15388;42.238;24.684;2024-03-08T15:15:46;27.45;;;19.52;;
28078;SDS011;15388;42.238;24.684;2024-03-08T15:18:11;24.58;;;18.42;;
28078;SDS011;15388;42.238;24.684;2024-03-08T15:20:37;28.98;;;17.85;;
28078;SDS011;15388;42.238;24.684;2024-03-08T15:23:02;30.67;;;19.77;;
28078;SDS011;15388;42.238;24.684;2024-03-08T15:25:29;41.88;;;20.77;;
28078;SDS011;15388;42.238;24.684;2024-03-08T15:27:56;68.60;;;28.73;;
28078;SDS011;15388;42.238;24.684;2024-03-08T15:30:23;33.25;;;20.33;;
28078;SDS011;15388;42.238;24.684;2024-03-08T15:32:51;36.50;;;18.27;;
28078;SDS011;15388;42.238;24.684;2024-03-08T15:35:21;32.50;;;18.52;;
28078;SDS011;15388;42.238;24.684;2024-03-08T15:37:46;29.15;;;19.15;;
28078;SDS011;15388;42.238;24.684;2024-03-08T15:40:12;24.80;;;16.30;;
28078;SDS011;15388;42.238;24.684;2024-03-08T15:42:56;26.05;;;17.90;;
28078;SDS011;15388;42.238;24.684;2024-03-08T15:45:22;28.10;;;16.67;;
28078;SDS011;15388;42.238;24.684;2024-03-08T15:47:55;27.33;;;18.55;;
28078;SDS011;15388;42.238;24.684;2024-03-08T15:50:20;39.20;;;24.23;;
28078;SDS011;15388;42.238;24.684;2024-03-08T15:52:48;28.75;;;19.48;;
28078;SDS011;15388;42.238;24.684;2024-03-08T15:55:17;27.05;;;18.67;;
28078;SDS011;15388;42.238;24.684;2024-03-08T15:57:47;38.95;;;20.95;;
28078;SDS011;15388;42.238;24.684;2024-03-08T16:00:13;42.63;;;19.73;;
28078;SDS011;15388;42.238;24.684;2024-03-08T16:02:56;28.70;;;18.10;;
28078;SDS011;15388;42.238;24.684;2024-03-08T16:05:21;28.67;;;18.48;;
28078;SDS011;15388;42.238;24.684;2024-03-08T16:07:47;27.52;;;17.65;;
28078;SDS011;15388;42.238;24.684;2024-03-08T16:10:12;27.52;;;18.90;;
28078;SDS011;15388;42.238;24.684;2024-03-08T16:12:37;35.47;;;20.25;;
28078;SDS011;15388;42.238;24.684;2024-03-08T16:15:04;31.17;;;18.25;;
28078;SDS011;15388;42.238;24.684;2024-03-08T16:17:31;26.13;;;17.42;;
28078;SDS011;15388;42.238;24.684;2024-03-08T16:19:56;32.17;;;18.45;;
28078;SDS011;15388;42.238;24.684;2024-03-08T16:22:22;39.33;;;19.83;;
28078;SDS011;15388;42.238;24.684;2024-03-08T16:24:47;29.05;;;18.30;;
28078;SDS011;15388;42.238;24.684;2024-03-08T16:27:15;32.78;;;19.23;;